Time;durP1;ratioP1;P1;durP2;ratioP2;P2;SDS_P1;SDS_P2;PMS_P1;PMS_P2;Temp;Humidity;BMP_temperature;BMP_pressure;BME280_temperature;BME280_humidity;BME280_pressure;Samples;Min_cycle;Max_cycle;Signal;HPM_P1;HPM_P2
2021/07/02 00:00:20;;;;;;;1.45;0.00;;;19.80;77.50;;;19.22;55.77;100381.44;5027008;28;20469;-57
2021/07/02 00:02:47;;;;;;;0.00;0.00;;;19.80;77.60;;;19.24;55.98;100379.41;5027939;28;20493;-55
2021/07/02 00:05:14;;;;;;;0.17;0.00;;;19.80;78.00;;;19.23;56.22;100391.00;5026925;28;20359;-58
2021/07/02 00:07:40;;;;;;;0.52;0.00;;;19.80;78.60;;;19.26;56.24;100385.31;5028042;28;20049;-57
2021/07/02 00:10:07;;;;;;;0.80;0.00;;;19.80;78.60;;;19.24;56.55;100384.69;5027260;28;20587;-61
2021/07/02 00:12:34;;;;;;;0.22;0.00;;;19.80;79.10;;;19.25;56.68;100381.03;5026866;28;20038;-54
2021/07/02 00:15:02;;;;;;;0.35;0.00;;;19.80;79.30;;;19.26;56.72;100376.56;5025328;28;20076;-60
2021/07/02 00:17:27;;;;;;;0.13;0.00;;;19.80;79.40;;;19.28;56.53;100380.63;5023770;28;20132;-49
2021/07/02 00:19:53;;;;;;;1.55;0.00;;;19.80;79.50;;;19.28;56.49;100378.00;5026313;28;20124;-56
2021/07/02 00:22:19;;;;;;;0.20;0.00;;;19.80;79.40;;;19.32;56.32;100370.47;5026536;28;20156;-51
2021/07/02 00:24:45;;;;;;;1.48;0.00;;;19.80;79.40;;;19.40;56.16;100378.19;5027659;28;20033;-59
2021/07/02 00:27:11;;;;;;;0.00;0.00;;;19.80;79.40;;;19.42;56.29;100376.97;5026736;28;20065;-50
2021/07/02 00:29:37;;;;;;;2.53;0.00;;;19.90;79.60;;;19.42;56.31;100371.69;5029928;28;20389;-62
2021/07/02 00:32:04;;;;;;;3.13;0.00;;;19.90;79.70;;;19.44;56.46;100374.13;5030656;28;20060;-59
2021/07/02 00:34:30;;;;;;;0.10;0.00;;;19.90;80.60;;;19.47;56.33;100374.53;5031855;28;20061;-60
2021/07/02 00:36:56;;;;;;;0.25;0.00;;;20.00;80.00;;;19.43;56.34;100370.66;5029147;28;20057;-56
2021/07/02 00:39:22;;;;;;;0.43;0.00;;;20.00;79.90;;;19.34;56.29;100371.91;5031609;28;20040;-60
2021/07/02 00:41:47;;;;;;;0.00;0.00;;;19.90;79.90;;;19.37;56.27;100366.22;5028595;28;20077;-52
2021/07/02 00:44:13;;;;;;;0.30;0.00;;;19.90;80.00;;;19.42;56.13;100370.88;5031502;28;20064;-59
2021/07/02 00:46:39;;;;;;;0.10;0.00;;;19.90;80.00;;;19.49;55.86;100371.66;5030135;28;20041;-57
2021/07/02 00:49:05;;;;;;;0.20;0.00;;;20.00;79.90;;;19.50;55.85;100368.81;5031548;28;20034;-56
2021/07/02 00:51:32;;;;;;;0.00;0.00;;;20.00;79.90;;;19.47;56.06;100363.13;5030195;28;20040;-56
2021/07/02 00:53:59;;;;;;;0.80;0.00;;;19.90;79.90;;;19.53;55.73;100357.88;5031510;28;20081;-56
2021/07/02 00:56:25;;;;;;;0.03;0.00;;;20.00;79.90;;;19.60;55.54;100365.00;5028084;28;20383;-56
2021/07/02 00:58:51;;;;;;;3.00;0.00;;;20.00;79.90;;;19.55;55.52;100365.59;5031257;28;20392;-60
2021/07/02 01:01:17;;;;;;;0.00;0.00;;;20.10;79.80;;;19.55;55.72;100365.59;5025473;28;20029;-59
2021/07/02 01:03:46;;;;;;;0.50;0.00;;;20.10;79.90;;;19.57;55.42;100378.59;5028153;28;20072;-59
2021/07/02 01:06:14;;;;;;;0.05;0.00;;;20.10;79.70;;;19.59;55.10;100372.09;5029547;28;20044;-51
2021/07/02 01:08:44;;;;;;;0.00;0.00;;;20.10;79.00;;;19.58;55.20;100385.53;5030199;28;20032;-63
2021/07/02 01:11:12;;;;;;;1.10;0.00;;;20.10;79.30;;;19.50;55.02;100389.97;5029962;28;20199;-60
2021/07/02 01:13:39;;;;;;;0.00;0.00;;;20.00;78.80;;;19.47;54.92;100386.91;5029520;28;20423;-51
2021/07/02 01:16:05;;;;;;;0.10;0.00;;;20.00;78.70;;;19.48;54.92;100385.91;5028983;28;20045;-53
2021/07/02 01:18:31;;;;;;;0.52;0.00;;;20.00;78.80;;;19.50;55.20;100395.25;5010949;28;20041;-54
2021/07/02 01:20:57;;;;;;;0.70;0.00;;;20.00;79.30;;;19.49;55.28;100390.16;5015418;28;20033;-53
2021/07/02 01:23:26;;;;;;;1.25;0.00;;;20.00;79.50;;;19.52;55.19;100397.72;5029743;28;20038;-62
2021/07/02 01:25:54;;;;;;;0.00;0.00;;;20.00;79.40;;;19.51;55.15;100399.56;5027960;28;20259;-60
2021/07/02 01:28:20;;;;;;;0.20;0.00;;;20.10;79.50;;;19.43;55.52;100404.19;5028837;28;20036;-59
2021/07/02 01:30:46;;;;;;;1.55;0.00;;;20.00;79.70;;;19.43;55.43;100399.72;5028697;28;20041;-57
2021/07/02 01:33:13;;;;;;;0.15;0.00;;;20.00;79.80;;;19.47;55.72;100402.78;5028824;28;20045;-60
2021/07/02 01:35:40;;;;;;;0.45;0.00;;;20.00;80.20;;;19.48;55.64;100397.28;5044607;28;20048;-59
2021/07/02 01:38:06;;;;;;;1.55;0.00;;;20.00;80.40;;;19.51;55.35;100402.19;5028938;28;20144;-59
2021/07/02 01:40:33;;;;;;;0.08;0.00;;;20.00;80.00;;;19.55;55.11;100408.69;5027270;28;20037;-54
2021/07/02 01:43:00;;;;;;;0.20;0.00;;;20.00;79.70;;;19.58;54.77;100404.84;5030285;28;20484;-57
2021/07/02 01:45:27;;;;;;;0.10;0.00;;;20.10;79.60;;;19.61;54.74;100398.31;5029118;28;20441;-51
2021/07/02 01:47:53;;;;;;;1.55;0.00;;;20.10;79.40;;;19.66;54.70;100395.88;5029015;28;20404;-57
2021/07/02 01:50:21;;;;;;;3.80;0.00;;;20.10;79.30;;;19.66;54.66;100398.53;5029381;28;20029;-56
2021/07/02 01:52:48;;;;;;;1.10;0.00;;;20.10;79.30;;;19.72;54.37;100398.53;5028451;28;20037;-55
2021/07/02 01:55:16;;;;;;;0.88;0.00;;;20.20;79.70;;;19.75;54.34;100395.47;5022510;28;20036;-61
2021/07/02 01:57:42;;;;;;;1.50;0.00;;;20.20;79.00;;;19.72;54.56;100387.94;5029031;28;20047;-60
2021/07/02 02:00:09;;;;;;;0.82;0.00;;;20.20;79.20;;;19.76;54.60;100383.88;5028985;28;20559;-58
2021/07/02 02:02:35;;;;;;;0.03;0.00;;;20.30;79.30;;;19.74;54.62;100379.81;5026624;28;20095;-59
2021/07/02 02:05:01;;;;;;;0.30;0.00;;;20.30;79.40;;;19.71;54.69;100374.94;5028313;28;20038;-56
2021/07/02 02:07:27;;;;;;;1.75;0.00;;;20.20;79.30;;;19.67;54.94;100379.81;5029027;28;20029;-48
2021/07/02 02:09:54;;;;;;;0.68;0.00;;;20.20;79.60;;;19.67;54.91;100373.72;5029832;28;20092;-56
2021/07/02 02:12:21;;;;;;;1.23;0.00;;;20.20;79.60;;;19.64;55.07;100368.84;5024049;28;20137;-55
2021/07/02 02:14:47;;;;;;;0.75;0.00;;;20.10;79.90;;;19.57;55.26;100366.22;5028453;28;20090;-56
2021/07/02 02:17:13;;;;;;;1.13;0.00;;;20.10;80.20;;;19.54;55.54;100364.78;5028486;28;20148;-51
2021/07/02 02:19:39;;;;;;;0.13;0.00;;;20.00;80.40;;;19.49;55.61;100367.19;5029411;28;20488;-56
2021/07/02 02:22:05;;;;;;;0.40;0.00;;;20.00;80.60;;;19.51;55.53;100361.75;5027849;28;20141;-54
2021/07/02 02:24:31;;;;;;;1.48;0.00;;;20.00;80.80;;;19.49;55.54;100351.34;5025996;28;20038;-46
2021/07/02 02:26:57;;;;;;;0.00;0.00;;;20.00;80.70;;;19.50;55.35;100347.69;5028182;28;20124;-57
2021/07/02 02:29:24;;;;;;;0.43;0.05;;;20.00;80.80;;;19.51;55.53;100357.28;5028402;28;20100;-49
2021/07/02 02:31:51;;;;;;;0.85;0.00;;;20.10;80.90;;;19.50;55.43;100345.03;5028151;28;20037;-52
2021/07/02 02:34:17;;;;;;;1.75;0.00;;;20.10;80.90;;;19.48;55.62;100347.06;5026138;28;20083;-53
2021/07/02 02:36:43;;;;;;;0.20;0.00;;;20.00;81.00;;;19.46;55.79;100350.94;5028169;28;20049;-54
2021/07/02 02:39:09;;;;;;;1.98;0.00;;;20.00;81.40;;;19.40;56.21;100346.47;5029444;28;20048;-55
2021/07/02 02:41:35;;;;;;;1.38;0.00;;;19.90;81.40;;;19.33;56.04;100349.16;5026166;28;20409;-51
2021/07/02 02:44:03;;;;;;;0.40;0.00;;;19.90;81.70;;;19.30;56.11;100349.56;5029033;28;20141;-52
2021/07/02 02:49:05;;;;;;;0.22;0.00;;;19.80;82.00;;;19.25;56.40;100346.72;4723811;22;20068;-57
2021/07/02 02:51:31;;;;;;;3.60;0.00;;;19.80;82.50;;;19.19;56.87;100350.16;5008247;28;20038;-61
2021/07/02 02:53:57;;;;;;;0.55;0.00;;;19.80;83.00;;;19.20;57.13;100354.44;5008203;28;20464;-64
2021/07/02 02:56:23;;;;;;;0.90;0.00;;;19.80;83.70;;;19.18;57.40;100359.09;5006809;28;20146;-61
2021/07/02 02:58:49;;;;;;;1.90;0.10;;;19.70;84.10;;;19.19;57.55;100366.00;5005797;28;20134;-56
2021/07/02 03:01:15;;;;;;;0.32;0.00;;;19.70;84.50;;;19.29;57.51;100361.13;5006859;28;20085;-59
2021/07/02 03:03:40;;;;;;;0.75;0.00;;;19.80;84.90;;;19.30;57.57;100362.75;5007799;28;20300;-58
2021/07/02 03:06:07;;;;;;;0.28;0.00;;;19.80;85.00;;;19.26;57.67;100361.53;5008852;28;20369;-55
2021/07/02 03:08:33;;;;;;;0.20;0.00;;;19.80;85.10;;;19.21;57.91;100369.25;5008956;28;20401;-56
2021/07/02 03:10:59;;;;;;;0.17;0.00;;;19.80;85.40;;;19.17;57.96;100368.84;5008748;28;20420;-63
2021/07/02 03:13:24;;;;;;;0.40;0.00;;;19.70;85.60;;;19.13;58.52;100361.53;5008704;28;20309;-56
2021/07/02 03:15:50;;;;;;;1.00;0.00;;;19.70;85.90;;;19.09;58.12;100365.59;5008710;28;20053;-51
2021/07/02 03:18:17;;;;;;;1.30;0.00;;;19.60;86.00;;;19.07;58.14;100355.22;5009283;28;20034;-61
2021/07/02 03:20:44;;;;;;;0.30;0.00;;;19.60;86.10;;;19.11;57.81;100356.44;5007243;28;20034;-54
2021/07/02 03:23:11;;;;;;;0.17;0.00;;;19.60;86.10;;;19.11;57.98;100356.44;5007178;28;20124;-61
2021/07/02 03:25:37;;;;;;;0.10;0.00;;;19.70;86.40;;;19.09;58.25;100360.31;5007040;28;20145;-56
2021/07/02 03:28:03;;;;;;;1.00;0.08;;;19.60;86.70;;;19.08;58.45;100364.78;5008467;28;20070;-61
2021/07/02 03:30:30;;;;;;;1.23;0.05;;;19.60;87.20;;;19.06;58.68;100368.63;5008458;28;20792;-55
2021/07/02 03:32:56;;;;;;;1.08;0.00;;;19.60;87.60;;;18.98;58.79;100366.19;5008193;28;20030;-57
2021/07/02 03:35:22;;;;;;;0.43;0.00;;;19.60;88.00;;;18.96;58.77;100370.84;5008973;28;20056;-52
2021/07/02 03:37:48;;;;;;;1.33;0.00;;;19.50;88.20;;;18.97;58.73;100372.47;5008732;28;20382;-57
2021/07/02 03:40:14;;;;;;;2.22;0.00;;;19.50;88.30;;;19.06;58.52;100379.19;5008438;28;20116;-57
2021/07/02 03:42:40;;;;;;;0.00;0.00;;;19.60;88.40;;;19.13;58.57;100374.72;5008597;28;20038;-55
2021/07/02 03:45:07;;;;;;;2.65;0.00;;;19.60;88.80;;;19.20;58.54;100372.91;5008346;28;20038;-56
2021/07/02 03:47:33;;;;;;;0.13;0.00;;;19.70;88.90;;;19.34;58.25;100374.56;5008629;28;20029;-53
2021/07/02 03:49:59;;;;;;;0.15;0.00;;;19.80;89.00;;;19.35;58.39;100376.19;5006573;28;20423;-53
2021/07/02 03:52:25;;;;;;;1.45;0.10;;;19.80;89.00;;;19.47;58.12;100374.53;5007755;28;20029;-58
2021/07/02 03:54:51;;;;;;;0.13;0.00;;;20.00;89.00;;;19.52;58.24;100366.81;5007894;28;20152;-54
2021/07/02 03:57:20;;;;;;;0.75;0.10;;;20.10;88.90;;;19.63;57.95;100377.78;4998477;28;20396;-57
2021/07/02 03:59:51;;;;;;;0.13;0.00;;;20.10;88.80;;;19.77;57.82;100377.56;4988542;28;20038;-54
2021/07/02 04:02:19;;;;;;;0.43;0.00;;;20.30;88.70;;;19.87;57.72;100387.69;5003521;28;20062;-55
2021/07/02 04:04:45;;;;;;;0.35;0.00;;;20.30;88.60;;;19.89;57.42;100394.41;5003705;28;20407;-55
2021/07/02 04:07:13;;;;;;;3.75;0.10;;;20.40;88.40;;;19.95;56.47;100384.84;4988880;28;20058;-54
2021/07/02 04:09:40;;;;;;;0.35;0.00;;;20.50;86.70;;;20.07;55.92;100388.47;4988667;28;20030;-56
2021/07/02 04:12:07;;;;;;;0.30;0.00;;;20.60;86.00;;;20.30;55.48;100384.53;4986913;28;20116;-55
2021/07/02 04:14:34;;;;;;;0.10;0.00;;;20.80;85.70;;;20.48;55.27;100376.72;4988611;28;20437;-53
2021/07/02 04:17:00;;;;;;;0.38;0.00;;;21.00;85.10;;;20.52;55.04;100377.94;4988567;28;20093;-57
2021/07/02 04:19:26;;;;;;;0.68;0.00;;;21.10;84.60;;;20.43;55.43;100379.19;4988309;28;20389;-55
2021/07/02 04:21:53;;;;;;;2.35;0.10;;;21.00;84.40;;;20.38;54.87;100379.00;4988083;28;20628;-57
2021/07/02 04:24:19;;;;;;;0.63;0.00;;;21.00;83.50;;;20.41;54.77;100381.22;4987087;28;20042;-57
2021/07/02 04:26:46;;;;;;;0.20;0.03;;;20.90;83.50;;;20.42;54.71;100388.16;4988402;28;20050;-56
2021/07/02 04:29:12;;;;;;;3.03;0.10;;;21.00;83.30;;;20.74;53.63;100386.38;4988701;28;20031;-56
2021/07/02 04:31:38;;;;;;;1.58;0.30;;;21.30;82.50;;;20.70;53.02;100388.63;4988207;28;20031;-57
2021/07/02 04:34:04;;;;;;;2.00;0.20;;;21.30;80.50;;;20.64;53.04;100386.03;4987976;28;20085;-57
2021/07/02 04:36:30;;;;;;;0.40;0.10;;;21.20;81.20;;;20.69;53.30;100392.31;4987988;28;20038;-56
2021/07/02 04:38:57;;;;;;;1.42;0.10;;;21.20;81.70;;;20.73;53.34;100385.56;4988237;28;20042;-57
2021/07/02 04:41:24;;;;;;;0.88;0.10;;;21.20;81.70;;;20.86;52.50;100385.47;4988305;28;20050;-55
2021/07/02 04:43:51;;;;;;;2.20;0.10;;;21.30;80.30;;;21.02;52.24;100393.94;4988159;28;20125;-56
2021/07/02 04:46:17;;;;;;;0.57;0.10;;;21.50;80.70;;;21.17;51.58;100392.59;4988061;28;20101;-53
2021/07/02 04:48:44;;;;;;;2.33;0.00;;;21.60;79.00;;;21.37;51.70;100395.09;4987807;28;20134;-56
2021/07/02 04:51:10;;;;;;;2.25;0.05;;;21.80;79.60;;;21.57;52.33;100391.47;4988052;28;20046;-54
2021/07/02 04:53:36;;;;;;;1.02;0.10;;;22.00;80.10;;;21.69;51.88;100385.25;4986790;28;20394;-57
2021/07/02 04:56:02;;;;;;;1.05;0.10;;;22.20;78.80;;;21.85;52.21;100381.19;4988177;28;20042;-55
2021/07/02 04:58:28;;;;;;;2.42;0.65;;;22.40;79.60;;;22.06;51.35;100372.84;4987976;28;20476;-55
2021/07/02 05:00:54;;;;;;;2.75;0.20;;;22.80;78.40;;;22.25;50.97;100378.09;5002837;28;20513;-57
2021/07/02 05:03:21;;;;;;;1.55;0.10;;;22.90;77.80;;;22.29;50.15;100381.94;5002863;28;20034;-58
2021/07/02 05:05:47;;;;;;;1.48;0.10;;;23.00;75.90;;;22.31;50.65;100388.66;4987714;28;20038;-55
2021/07/02 05:08:13;;;;;;;0.88;0.10;;;23.00;76.10;;;22.39;49.57;100391.00;4988063;28;20058;-57
2021/07/02 05:10:42;;;;;;;3.33;0.00;;;23.10;74.90;;;22.57;48.43;100386.69;4987918;28;20629;-57
2021/07/02 05:13:08;;;;;;;0.30;0.00;;;23.20;73.10;;;22.66;47.51;100390.66;4987792;28;20041;-56
2021/07/02 05:15:34;;;;;;;1.38;0.00;;;23.40;71.90;;;22.96;46.79;100396.78;4986231;28;20513;-55
2021/07/02 05:18:00;;;;;;;0.50;0.00;;;23.60;71.00;;;23.12;46.35;100397.97;4990793;28;20030;-55
2021/07/02 05:20:26;;;;;;;1.13;0.00;;;23.80;69.80;;;23.10;45.96;100392.91;4991148;28;20391;-53
2021/07/02 05:22:52;;;;;;;6.63;0.20;;;23.90;68.80;;;22.92;45.98;100397.47;4991105;28;20037;-55
2021/07/02 05:25:18;;;;;;;2.97;0.10;;;23.80;68.30;;;22.93;46.47;100388.47;4991294;28;20041;-56
2021/07/02 05:27:45;;;;;;;3.08;0.10;;;23.70;69.10;;;22.84;47.10;100390.63;5006181;28;20196;-54
2021/07/02 05:30:13;;;;;;;0.55;0.00;;;23.70;69.80;;;22.84;47.79;100388.78;4990094;28;20063;-54
2021/07/02 05:32:39;;;;;;;1.60;0.00;;;23.60;70.30;;;23.02;47.50;100387.91;4989203;28;20531;-55
2021/07/02 05:35:07;;;;;;;2.83;0.20;;;23.60;70.70;;;22.97;46.23;100394.94;4990568;28;20042;-58
2021/07/02 05:37:33;;;;;;;2.97;0.20;;;23.60;69.00;;;22.98;45.79;100393.91;4990753;28;20472;-58
2021/07/02 05:39:59;;;;;;;2.55;0.20;;;23.60;68.40;;;22.87;45.43;100395.47;4991022;28;20057;-55
2021/07/02 05:42:25;;;;;;;5.60;0.10;;;23.50;67.10;;;22.71;45.66;100394.22;4991423;28;20042;-56
2021/07/02 05:44:52;;;;;;;0.95;0.00;;;23.30;67.30;;;22.73;45.21;100400.13;4991359;28;20041;-56
2021/07/02 05:47:18;;;;;;;4.60;0.10;;;23.30;66.90;;;22.88;45.33;100401.59;4991041;28;20039;-57
2021/07/02 05:49:44;;;;;;;1.73;0.10;;;23.40;67.80;;;23.29;44.94;100400.75;4989124;28;20521;-54
2021/07/02 05:52:09;;;;;;;3.30;0.30;;;23.80;67.50;;;23.60;46.10;100412.97;4990667;28;20480;-54
2021/07/02 05:54:35;;;;;;;1.52;0.25;;;24.20;69.10;;;23.72;46.99;100405.78;4990783;28;20125;-53
2021/07/02 05:57:01;;;;;;;4.85;0.10;;;24.50;70.20;;;23.91;46.90;100401.94;4990970;28;20069;-55
2021/07/02 05:59:27;;;;;;;0.60;0.05;;;24.80;69.40;;;25.73;42.61;100403.66;4989198;28;20030;-55
2021/07/02 06:01:53;;;;;;;1.98;0.10;;;26.70;64.50;;;26.09;41.30;100408.41;4990400;28;20533;-54
2021/07/02 06:04:19;;;;;;;3.03;0.75;;;27.90;60.20;;;26.38;40.66;100402.91;4990646;28;20089;-54
2021/07/02 06:06:47;;;;;;;3.70;0.10;;;28.20;58.70;;;25.81;41.28;100389.91;4990317;28;20144;-53
2021/07/02 06:09:15;;;;;;;0.80;0.10;;;27.40;58.90;;;25.16;42.02;100393.16;5005267;28;20181;-54
2021/07/02 06:11:41;;;;;;;1.88;0.08;;;26.40;60.90;;;24.91;42.46;100398.84;4990137;28;20104;-55
2021/07/02 06:14:07;;;;;;;6.20;0.10;;;26.10;61.10;;;24.91;43.10;100395.38;4990335;28;20038;-57
2021/07/02 06:16:33;;;;;;;1.05;0.00;;;25.90;62.30;;;25.08;43.40;100394.38;4990095;28;20042;-54
2021/07/02 06:18:59;;;;;;;1.15;0.10;;;26.00;63.30;;;25.11;43.15;100393.06;4990221;28;20038;-53
2021/07/02 06:21:25;;;;;;;0.98;0.10;;;26.00;63.20;;;25.12;43.17;100392.84;4990410;28;20041;-50
2021/07/02 06:23:50;;;;;;;0.55;0.00;;;26.00;62.90;;;25.27;43.04;100389.63;4990166;28;20121;-52
2021/07/02 06:26:17;;;;;;;2.17;0.10;;;26.10;62.60;;;25.36;41.82;100390.81;4990062;28;20085;-51
2021/07/02 06:28:43;;;;;;;4.28;0.15;;;26.20;61.40;;;25.44;41.65;100387.75;4990026;28;20116;-54
2021/07/02 06:31:09;;;;;;;1.85;0.00;;;26.20;61.30;;;25.60;41.28;100393.28;4990299;28;20049;-55
2021/07/02 06:33:35;;;;;;;0.88;0.20;;;26.40;60.60;;;25.91;40.62;100400.72;4990098;28;20397;-54
2021/07/02 06:36:02;;;;;;;2.35;0.10;;;26.70;59.70;;;26.09;40.60;100400.38;4990149;28;20034;-55
2021/07/02 06:38:28;;;;;;;0.30;0.00;;;27.10;59.80;;;26.32;40.69;100401.22;5004672;28;20485;-57
2021/07/02 06:40:54;;;;;;;2.63;0.20;;;27.50;59.20;;;26.45;40.27;100408.88;4990092;28;20040;-56
2021/07/02 06:43:20;;;;;;;2.45;0.10;;;27.60;58.60;;;26.61;40.10;100407.97;4989843;28;20056;-54
2021/07/02 06:45:47;;;;;;;0.68;0.00;;;27.80;58.40;;;26.57;39.78;100406.84;4989632;28;20553;-55
2021/07/02 06:48:13;;;;;;;1.42;0.00;;;27.80;57.50;;;26.80;39.54;100410.28;4989799;28;20062;-56
2021/07/02 06:50:45;;;;;;;3.13;0.10;;;28.00;57.50;;;28.30;36.91;100405.47;4989741;28;20124;-54
2021/07/02 06:53:12;;;;;;;3.03;0.38;;;29.90;54.20;;;29.98;33.38;100407.09;5004598;28;20493;-56
2021/07/02 06:55:38;;;;;;;0.38;0.00;;;32.00;50.00;;;31.88;30.62;100403.56;5004465;28;20506;-54
2021/07/02 06:58:04;;;;;;;3.38;0.00;;;35.00;45.40;;;30.56;31.83;100401.19;4989988;28;20041;-53
2021/07/02 07:00:31;;;;;;;0.50;0.00;;;33.80;45.00;;;29.80;32.62;100406.88;4989825;28;20078;-54
2021/07/02 07:02:57;;;;;;;0.28;0.00;;;32.20;47.40;;;29.31;33.82;100405.59;4989675;28;20493;-54
2021/07/02 07:05:23;;;;;;;1.85;0.00;;;31.30;48.80;;;28.99;34.32;100418.47;4989624;28;20049;-57
2021/07/02 07:07:49;;;;;;;0.10;0.00;;;30.70;49.30;;;29.00;33.55;100412.03;4989360;28;20362;-55
2021/07/02 07:10:15;;;;;;;0.52;0.00;;;30.40;49.30;;;28.77;33.93;100405.31;4989355;28;20042;-55
2021/07/02 07:12:41;;;;;;;0.00;0.00;;;30.10;50.00;;;28.67;33.88;100408.78;4988980;28;20489;-57
2021/07/02 07:15:08;;;;;;;1.48;0.00;;;29.80;50.20;;;28.50;34.20;100410.88;4989481;28;20044;-56
2021/07/02 07:17:35;;;;;;;1.63;0.00;;;29.70;50.10;;;28.24;34.43;100418.03;5004099;28;20026;-53
2021/07/02 07:20:01;;;;;;;0.10;0.00;;;29.50;50.40;;;27.98;35.18;100411.72;4989402;28;20276;-54
2021/07/02 07:22:27;;;;;;;0.95;0.10;;;29.20;50.90;;;27.86;35.01;100421.84;4989069;28;20057;-55
2021/07/02 07:24:53;;;;;;;0.10;0.00;;;29.10;50.70;;;27.67;35.17;100415.31;4989118;28;20034;-58
2021/07/02 07:27:19;;;;;;;2.90;0.00;;;29.00;51.00;;;28.15;34.59;100411.53;4988930;28;20076;-52
2021/07/02 07:29:45;;;;;;;1.30;0.00;;;29.10;50.90;;;29.00;32.54;100410.16;4989080;28;20485;-59
2021/07/02 07:32:12;;;;;;;0.32;0.00;;;29.70;49.30;;;29.24;31.75;100406.97;4989386;28;20034;-54
2021/07/02 07:34:45;;;;;;;0.70;0.00;;;30.10;48.70;;;29.33;31.58;100400.75;4989131;28;20056;-58
2021/07/02 07:37:21;;;;;;;2.38;0.03;;;30.20;48.40;;;29.39;31.50;100402.38;4988899;28;20399;-57
2021/07/02 07:39:49;;;;;;;0.40;0.00;;;30.30;48.10;;;29.29;30.92;100396.22;4988275;28;20125;-56
2021/07/02 07:42:15;;;;;;;0.03;0.00;;;30.20;47.10;;;28.79;31.39;100408.53;4989064;28;20039;-56
2021/07/02 07:44:41;;;;;;;0.30;0.00;;;29.70;48.20;;;28.84;31.88;100403.19;4988727;28;20045;-54
2021/07/02 07:47:08;;;;;;;0.10;0.00;;;29.60;48.50;;;29.19;31.82;100399.72;4988822;28;20030;-56
2021/07/02 07:49:35;;;;;;;1.35;0.00;;;29.70;48.80;;;29.47;31.83;100394.88;4988542;28;20213;-55
2021/07/02 07:52:52;;;;;;;0.95;0.00;;;30.00;49.20;;;29.62;31.93;100394.84;4993106;28;20501;-56
2021/07/02 07:54:47;;;;;;;0.20;0.20;;;30.20;49.00;;;29.25;32.06;100382.53;5001213;28;20453;-55
2021/07/02 07:57:13;;;;;;;0.65;0.00;;;30.10;48.60;;;29.14;32.53;100383.63;5008949;28;20072;-56
2021/07/02 07:59:39;;;;;;;1.52;0.00;;;29.80;49.50;;;29.32;32.56;100383.03;5008131;28;20092;-56
2021/07/02 08:02:05;;;;;;;0.20;0.00;;;29.80;49.90;;;29.30;32.54;100379.81;5008140;28;20531;-54
2021/07/02 08:04:31;;;;;;;0.05;0.00;;;29.80;49.70;;;28.90;32.12;100390.56;5007967;28;20041;-54
2021/07/02 08:06:57;;;;;;;1.45;0.00;;;29.60;48.80;;;28.68;32.14;100396.16;5007921;28;20041;-57
2021/07/02 08:09:23;;;;;;;0.20;0.00;;;29.10;49.00;;;28.93;32.01;100385.50;5006474;28;20512;-56
2021/07/02 08:11:49;;;;;;;2.15;0.00;;;29.20;49.50;;;29.33;31.77;100383.84;5007905;28;20034;-55
2021/07/02 08:14:15;;;;;;;0.20;0.10;;;29.60;48.90;;;29.57;31.21;100395.66;5007973;28;20042;-55
2021/07/02 08:16:41;;;;;;;5.60;0.00;;;29.90;48.90;;;29.48;31.69;100386.56;5008153;28;20057;-56
2021/07/02 08:19:07;;;;;;;0.15;0.00;;;30.10;48.80;;;29.58;31.46;100394.59;5007826;28;20037;-55
2021/07/02 08:21:33;;;;;;;0.50;0.00;;;30.10;48.30;;;29.49;31.39;100393.53;5007708;28;20044;-55
2021/07/02 08:23:59;;;;;;;0.13;0.00;;;30.10;48.60;;;29.74;30.80;100390.00;5008121;28;20037;-56
2021/07/02 08:26:26;;;;;;;0.03;0.00;;;30.30;48.00;;;29.87;30.61;100389.38;5007918;28;20377;-53
2021/07/02 08:31:37;;;;;;;0.00;0.00;;;30.50;47.90;;;29.48;31.25;100391.13;5008221;28;20049;-56
2021/07/02 08:34:03;;;;;;;1.17;0.00;;;30.10;48.00;;;29.42;31.34;100392.19;5007733;28;20038;-55
2021/07/02 08:36:29;;;;;;;1.48;0.00;;;30.00;48.40;;;29.56;30.96;100387.88;5007702;28;20589;-50
2021/07/02 08:38:55;;;;;;;0.60;0.00;;;30.10;48.40;;;29.72;31.13;100386.78;5007430;28;20124;-54
2021/07/02 08:41:21;;;;;;;2.38;0.00;;;30.20;48.20;;;29.96;30.86;100393.13;5007619;28;20037;-56
2021/07/02 08:43:48;;;;;;;0.52;0.00;;;30.30;48.30;;;30.08;31.09;100389.34;5006024;28;20065;-55
2021/07/02 08:46:21;;;;;;;0.22;0.00;;;30.40;48.40;;;29.75;30.14;100386.22;5007593;28;20603;-56
2021/07/02 08:48:49;;;;;;;0.70;0.00;;;30.30;48.00;;;29.49;31.03;100392.72;5005886;28;20137;-55
2021/07/02 08:51:16;;;;;;;0.17;0.00;;;30.00;48.90;;;29.34;31.70;100378.22;5008996;28;20485;-55
2021/07/02 08:53:42;;;;;;;0.15;0.00;;;29.80;48.60;;;29.82;30.88;100381.34;5011214;28;20036;-56
2021/07/02 08:56:09;;;;;;;0.73;0.05;;;30.10;48.80;;;30.12;30.63;100379.66;5011518;28;20030;-56
2021/07/02 08:58:36;;;;;;;2.08;0.00;;;30.30;48.50;;;29.90;30.41;100371.94;5011385;28;20042;-54
2021/07/02 09:01:09;;;;;;;0.70;0.00;;;30.30;47.60;;;29.84;31.05;100381.88;5011424;28;20056;-54
2021/07/02 09:03:38;;;;;;;0.65;0.00;;;30.10;48.50;;;30.00;30.51;100386.16;5011458;28;20042;-56
2021/07/02 09:06:16;;;;;;;0.20;0.00;;;30.20;48.10;;;30.37;28.69;100388.38;5009684;28;20030;-53
2021/07/02 09:09:07;;;;;;;0.20;0.00;;;30.60;46.70;;;30.17;28.89;100382.34;5009728;28;20583;-53
2021/07/02 09:11:34;;;;;;;0.10;0.00;;;30.50;46.70;;;30.06;28.58;100380.75;5009282;28;20030;-55
2021/07/02 09:14:03;;;;;;;0.15;0.00;;;30.30;45.80;;;30.12;28.39;100382.34;5009477;28;20072;-55
2021/07/02 09:16:39;;;;;;;0.40;0.00;;;30.40;45.40;;;30.37;27.96;100382.22;5009553;28;20119;-56
2021/07/02 09:19:27;;;;;;;0.65;0.00;;;30.50;45.20;;;29.94;27.65;100379.16;5011004;28;20084;-53
2021/07/02 09:22:19;;;;;;;0.10;0.00;;;30.30;44.50;;;29.64;27.10;100384.66;5010663;28;20033;-52
2021/07/02 09:24:48;;;;;;;0.00;0.00;;;30.10;44.40;;;29.94;27.65;100381.84;4993831;28;20042;-58
2021/07/02 09:27:34;;;;;;;0.10;0.00;;;30.20;44.50;;;29.85;27.15;100375.44;5010800;28;20030;-53
2021/07/02 09:30:08;;;;;;;0.17;0.00;;;30.10;44.30;;;29.93;27.32;100382.94;5009230;28;20092;-52
2021/07/02 09:32:42;;;;;;;0.00;0.00;;;30.10;44.70;;;30.43;26.64;100383.78;5010540;28;20040;-56
2021/07/02 09:35:11;;;;;;;0.10;0.00;;;30.40;44.50;;;30.33;27.54;100387.34;5010622;28;20038;-58
2021/07/02 09:37:41;;;;;;;0.10;0.00;;;30.50;44.60;;;30.78;26.97;100387.34;5009087;28;20041;-57
2021/07/02 09:40:19;;;;;;;0.10;0.00;;;30.80;44.30;;;31.28;26.47;100391.53;5009099;28;20144;-56
2021/07/02 09:42:46;;;;;;;0.10;0.00;;;31.30;43.90;;;31.38;26.29;100385.25;5008814;28;20045;-55
2021/07/02 09:45:17;;;;;;;2.05;0.00;;;31.60;43.50;;;31.21;26.26;100381.09;5010737;28;20042;-56
2021/07/02 09:47:46;;;;;;;0.08;0.00;;;31.70;43.50;;;30.14;27.40;100375.63;5010581;28;20038;-58
2021/07/02 09:50:29;;;;;;;0.35;0.00;;;30.90;43.80;;;30.55;26.42;100378.88;5008947;28;20382;-57
2021/07/02 09:52:59;;;;;;;0.20;0.00;;;30.90;43.50;;;30.62;27.12;100374.03;5010260;28;20034;-56
2021/07/02 09:55:34;;;;;;;0.10;0.00;;;31.00;43.60;;;30.06;27.60;100376.19;4992380;28;20038;-57
2021/07/02 09:58:04;;;;;;;0.00;0.00;;;30.80;44.00;;;30.24;27.54;100377.47;5010628;28;20377;-56
2021/07/02 10:00:34;;;;;;;0.10;0.00;;;30.60;44.40;;;30.31;27.10;100373.38;5009940;28;20049;-57
2021/07/02 10:03:02;;;;;;;0.00;0.00;;;30.70;44.10;;;31.47;26.50;100365.50;5009779;28;20045;-54
2021/07/02 10:05:28;;;;;;;0.55;0.00;;;31.40;44.10;;;31.97;25.70;100371.41;5008604;28;20136;-57
2021/07/02 10:07:57;;;;;;;1.08;0.00;;;32.00;43.20;;;31.94;25.23;100374.69;5009894;28;20025;-55
2021/07/02 10:10:28;;;;;;;0.45;0.00;;;32.20;42.60;;;30.85;26.20;100363.63;5008455;28;20034;-53
2021/07/02 10:12:56;;;;;;;1.85;0.00;;;31.50;42.70;;;31.50;25.93;100366.81;5009821;28;20033;-55
2021/07/02 10:15:23;;;;;;;0.20;0.00;;;31.50;43.00;;;31.42;25.54;100359.38;5010032;28;20042;-52
2021/07/02 10:17:51;;;;;;;0.20;0.00;;;31.70;42.80;;;31.88;25.29;100365.84;5009734;28;20044;-58